Groveland, Massachusetts
Current Conditions -  °F | °C
As of 1:54 PM on Friday 28 Nov 2014 (Local Time) from KLWM Reporting Station
Clear Clear  
Wind Chill: 23°   Ceiling: Unl
Heat Index: 31°   Visibility: 10mi
Dew Point: 20°   Wind: 8mph
Humidity: 64%   Direction: 330°NNW
Pressure: 30.07"   Gusts: NA
Location:  42.76°N, 71.03°W
Report Text: KLWM 281854Z 33007KT 10SM CLR M01/M07 A3007 RMK AO2 SLP184 T10061067
Loading
Personal Weather Stations






























Interactive Weather Map New forecast layout! Learn more

10-Day Weather Forecast

Advertisements
Track Severe Weather on mobile